createdAt,value
2017-09-26T00:01:57.943Z,53.67
2017-09-26T00:04:25.346Z,52.17
2017-09-26T00:06:52.742Z,46.60
2017-09-26T00:09:20.143Z,45.83
2017-09-26T00:11:47.545Z,56.97
2017-09-26T00:14:14.938Z,46.53
2017-09-26T00:16:42.343Z,56.60
2017-09-26T00:19:09.744Z,62.50
2017-09-26T00:21:37.152Z,51.43
2017-09-26T00:24:04.554Z,53.90
2017-09-26T00:26:31.964Z,50.60
2017-09-26T00:28:59.383Z,60.17
2017-09-26T00:31:26.800Z,37.35
2017-09-26T00:33:54.204Z,40.60
2017-09-26T00:36:21.611Z,43.80
2017-09-26T00:38:50.835Z,36.63
2017-09-26T00:41:18.240Z,62.07
2017-09-26T00:43:45.635Z,51.63
2017-09-26T00:46:13.034Z,55.30
2017-09-26T00:48:40.441Z,58.03
2017-09-26T00:51:07.946Z,48.77
2017-09-26T00:53:35.337Z,55.20
2017-09-26T00:56:02.735Z,50.10
2017-09-26T00:58:30.135Z,39.00
2017-09-26T01:00:57.528Z,56.23
2017-09-26T01:03:24.935Z,43.50
2017-09-26T01:05:53.093Z,34.70
2017-09-26T01:08:20.495Z,36.30
2017-09-26T01:10:47.893Z,39.97
2017-09-26T01:13:15.294Z,38.00
2017-09-26T01:15:42.686Z,55.03
2017-09-26T01:18:10.086Z,39.90
2017-09-26T01:20:37.489Z,38.70
2017-09-26T01:23:04.899Z,51.30
2017-09-26T01:25:32.300Z,52.43
2017-09-26T01:27:59.701Z,47.87
2017-09-26T01:30:27.096Z,41.77
2017-09-26T01:32:54.603Z,40.73
2017-09-26T01:35:21.990Z,37.70
2017-09-26T01:37:49.403Z,42.50
2017-09-26T01:40:16.796Z,49.23
2017-09-26T01:42:44.199Z,48.67
2017-09-26T01:45:11.595Z,47.93
2017-09-26T01:47:39.059Z,32.50
2017-09-26T01:50:06.452Z,46.60
2017-09-26T01:52:33.850Z,43.43
2017-09-26T01:55:01.243Z,42.53
2017-09-26T01:57:30.967Z,42.67
2017-09-26T01:59:59.262Z,42.97
2017-09-26T02:02:26.755Z,51.63
2017-09-26T02:04:54.138Z,51.23
2017-09-26T02:07:21.535Z,40.73
2017-09-26T02:09:48.933Z,40.47
2017-09-26T02:12:16.328Z,43.37
2017-09-26T02:14:43.725Z,36.50
2017-09-26T02:17:11.124Z,43.80
2017-09-26T02:19:38.545Z,35.57
2017-09-26T02:22:05.938Z,26.60
2017-09-26T02:24:33.353Z,37.37
2017-09-26T02:27:00.742Z,49.27
2017-09-26T02:29:28.155Z,33.20
2017-09-26T02:31:55.542Z,37.93
2017-09-26T02:34:22.952Z,43.50
2017-09-26T02:36:50.342Z,36.57
2017-09-26T02:39:17.782Z,30.03
2017-09-26T02:41:45.171Z,38.50
2017-09-26T02:44:12.570Z,31.53
2017-09-26T02:46:39.969Z,28.27
2017-09-26T02:49:07.386Z,43.57
2017-09-26T02:51:34.770Z,28.67
2017-09-26T02:54:02.162Z,37.47
2017-09-26T02:56:29.566Z,40.27
2017-09-26T02:58:56.959Z,35.20
2017-09-26T03:01:24.362Z,40.80
2017-09-26T03:03:51.763Z,35.40
2017-09-26T03:06:19.167Z,29.33
2017-09-26T03:08:46.563Z,26.30
2017-09-26T03:11:13.959Z,39.53
2017-09-26T03:13:41.355Z,31.40
2017-09-26T03:16:08.754Z,41.17
2017-09-26T03:18:36.181Z,33.73
2017-09-26T03:21:03.583Z,44.13
2017-09-26T03:23:30.978Z,37.87
2017-09-26T03:25:58.374Z,38.57
2017-09-26T03:28:25.766Z,32.40
2017-09-26T03:30:53.166Z,40.03
2017-09-26T03:33:20.558Z,33.70
2017-09-26T03:35:48.937Z,32.97
2017-09-26T03:38:16.330Z,40.33
2017-09-26T03:40:43.740Z,48.30
2017-09-26T03:43:11.130Z,42.13
2017-09-26T03:45:38.530Z,48.87
2017-09-26T03:48:05.927Z,32.87
2017-09-26T03:50:33.321Z,42.23
2017-09-26T03:53:00.721Z,39.23
2017-09-26T03:55:28.107Z,27.60
2017-09-26T03:57:55.510Z,23.33
2017-09-26T04:00:22.906Z,41.20
2017-09-26T04:02:50.311Z,42.00
2017-09-26T04:05:17.703Z,42.57
2017-09-26T04:07:45.102Z,33.73
2017-09-26T04:10:12.491Z,42.13
2017-09-26T04:12:39.894Z,43.13
2017-09-26T04:15:07.296Z,39.93
2017-09-26T04:17:34.727Z,39.30
2017-09-26T04:20:02.128Z,41.13
2017-09-26T04:22:29.526Z,39.33
2017-09-26T04:24:56.923Z,28.63
2017-09-26T04:27:24.323Z,46.57
2017-09-26T04:29:51.716Z,42.60
2017-09-26T04:32:19.116Z,31.43
2017-09-26T04:34:46.510Z,26.20
2017-09-26T04:37:13.911Z,28.30
2017-09-26T04:39:41.308Z,29.33
2017-09-26T04:42:08.704Z,29.70
2017-09-26T04:44:36.106Z,31.10
2017-09-26T04:47:03.594Z,36.27
2017-09-26T04:49:30.990Z,43.47
2017-09-26T04:51:58.411Z,47.80
2017-09-26T04:54:25.808Z,38.70
2017-09-26T04:56:53.198Z,49.57
2017-09-26T04:59:20.609Z,53.13
2017-09-26T05:01:48.003Z,29.40
2017-09-26T05:04:15.403Z,38.37
2017-09-26T05:06:42.801Z,34.23
2017-09-26T05:09:10.207Z,47.50
2017-09-26T05:11:37.600Z,47.37
2017-09-26T05:14:04.998Z,45.87
2017-09-26T05:16:32.402Z,47.53
2017-09-26T05:18:59.819Z,41.83
2017-09-26T05:21:27.270Z,39.13
2017-09-26T05:23:54.679Z,33.03
2017-09-26T05:26:22.071Z,41.93
2017-09-26T05:28:49.470Z,48.77
2017-09-26T05:31:16.867Z,38.20
2017-09-26T05:33:44.262Z,41.50
2017-09-26T05:36:11.659Z,47.03
2017-09-26T05:38:39.131Z,45.60
2017-09-26T05:41:06.523Z,46.10
2017-09-26T05:43:33.914Z,55.13
2017-09-26T05:46:01.423Z,55.23
2017-09-26T05:48:28.880Z,68.43
2017-09-26T05:50:56.283Z,47.40
2017-09-26T05:53:23.673Z,49.30
2017-09-26T05:55:51.070Z,53.17
2017-09-26T05:58:18.488Z,50.20
2017-09-26T06:00:45.886Z,51.33
2017-09-26T06:03:13.288Z,60.27
2017-09-26T06:05:40.690Z,48.97
2017-09-26T06:08:08.091Z,53.97
2017-09-26T06:10:35.491Z,69.50
2017-09-26T06:13:02.890Z,93.97
2017-09-26T06:15:30.292Z,93.90
2017-09-26T06:17:57.750Z,97.70
2017-09-26T06:20:25.151Z,91.80
2017-09-26T06:22:52.548Z,87.97
2017-09-26T06:25:19.954Z,112.37
2017-09-26T06:27:47.351Z,67.60
2017-09-26T06:30:14.754Z,79.82
2017-09-26T06:32:42.151Z,69.20
2017-09-26T06:35:09.539Z,71.20
2017-09-26T06:37:36.942Z,74.87
2017-09-26T06:40:04.339Z,74.40
2017-09-26T06:42:31.752Z,54.03
2017-09-26T06:44:59.142Z,80.93
2017-09-26T06:47:26.541Z,97.40
2017-09-26T06:49:53.938Z,75.07
2017-09-26T06:52:21.334Z,87.70
2017-09-26T06:54:48.730Z,74.47
2017-09-26T06:57:16.127Z,82.67
2017-09-26T06:59:43.523Z,69.87
2017-09-26T07:02:10.932Z,70.67
2017-09-26T07:04:38.334Z,74.53
2017-09-26T07:07:05.750Z,63.73
2017-09-26T07:09:33.142Z,68.73
2017-09-26T07:12:00.551Z,77.10
2017-09-26T07:14:27.942Z,66.40
2017-09-26T07:16:55.343Z,70.10
2017-09-26T07:19:22.734Z,72.37
2017-09-26T07:21:50.134Z,78.90
2017-09-26T07:24:17.526Z,78.67
2017-09-26T07:26:44.930Z,71.93
2017-09-26T07:29:12.350Z,71.23
2017-09-26T07:31:39.767Z,71.40
2017-09-26T07:34:07.150Z,70.30
2017-09-26T07:36:34.552Z,62.70
2017-09-26T07:39:01.951Z,64.83
2017-09-26T07:41:29.343Z,65.13
2017-09-26T07:43:56.742Z,69.70
2017-09-26T07:46:24.135Z,56.23
2017-09-26T07:48:51.538Z,60.83
2017-09-26T07:51:18.930Z,68.90
2017-09-26T07:53:46.412Z,57.50
2017-09-26T07:56:13.800Z,58.27
2017-09-26T07:58:41.198Z,54.50
2017-09-26T08:01:08.734Z,70.33
2017-09-26T08:03:36.231Z,51.70
2017-09-26T08:06:03.750Z,57.40
2017-09-26T08:08:31.274Z,58.40
2017-09-26T08:10:58.714Z,53.13
2017-09-26T08:13:26.114Z,54.00
2017-09-26T08:15:53.526Z,48.03
2017-09-26T08:18:20.930Z,46.10
2017-09-26T08:20:48.322Z,53.80
2017-09-26T08:23:15.723Z,52.80
2017-09-26T08:25:43.118Z,47.53
2017-09-26T08:28:10.515Z,47.77
2017-09-26T08:30:37.914Z,42.03
2017-09-26T08:33:05.310Z,44.07
2017-09-26T08:35:32.710Z,46.33
2017-09-26T08:38:00.109Z,49.00
2017-09-26T08:40:27.515Z,46.40
2017-09-26T08:42:54.930Z,43.80
2017-09-26T08:45:22.390Z,37.40
2017-09-26T08:47:49.839Z,42.67
2017-09-26T08:50:17.234Z,40.43
2017-09-26T08:52:44.669Z,43.60
2017-09-26T08:55:12.050Z,46.00
2017-09-26T08:57:39.462Z,43.30
2017-09-26T09:00:06.862Z,41.97
2017-09-26T09:02:34.258Z,38.90
2017-09-26T09:05:01.661Z,37.23
2017-09-26T09:07:29.059Z,39.37
2017-09-26T09:09:56.451Z,43.97
2017-09-26T09:12:23.917Z,42.33
2017-09-26T09:14:51.308Z,39.57
2017-09-26T09:17:18.703Z,39.83
2017-09-26T09:19:46.102Z,47.37
2017-09-26T09:22:13.496Z,42.10
2017-09-26T09:24:40.903Z,49.37
2017-09-26T09:27:08.296Z,40.03
2017-09-26T09:29:35.694Z,41.20
2017-09-26T09:32:03.091Z,41.90
2017-09-26T09:34:30.599Z,45.63
2017-09-26T09:36:57.990Z,38.17
2017-09-26T09:39:25.403Z,40.93
2017-09-26T09:41:52.795Z,40.60
2017-09-26T09:44:20.190Z,39.47
2017-09-26T09:46:47.596Z,47.23
2017-09-26T09:49:14.995Z,42.03
2017-09-26T09:51:42.400Z,42.17
2017-09-26T09:54:09.795Z,40.50
2017-09-26T09:56:37.191Z,46.80
2017-09-26T09:59:04.583Z,45.97
2017-09-26T10:01:31.984Z,45.17
2017-09-26T10:03:59.378Z,48.13
2017-09-26T10:06:26.784Z,51.17
2017-09-26T10:08:54.179Z,51.17
2017-09-26T10:11:21.633Z,48.83
2017-09-26T10:13:49.027Z,46.80
2017-09-26T10:16:16.418Z,42.10
2017-09-26T10:18:43.818Z,42.13
2017-09-26T10:21:11.221Z,42.00
2017-09-26T10:23:38.620Z,39.80
2017-09-26T10:26:06.014Z,51.40
2017-09-26T10:28:33.425Z,51.70
2017-09-26T10:31:00.814Z,47.93
2017-09-26T10:33:28.231Z,55.37
2017-09-26T10:35:55.626Z,43.50
2017-09-26T10:38:23.042Z,45.90
2017-09-26T10:40:50.438Z,46.30
2017-09-26T10:43:17.842Z,45.37
2017-09-26T10:45:45.242Z,47.23
2017-09-26T10:48:12.643Z,47.60
2017-09-26T10:50:40.031Z,43.53
2017-09-26T10:53:07.434Z,47.63
2017-09-26T10:55:34.838Z,38.83
2017-09-26T10:58:02.286Z,42.90
2017-09-26T11:00:29.750Z,43.83
2017-09-26T11:02:57.149Z,44.83
2017-09-26T11:05:24.564Z,47.87
2017-09-26T11:07:51.972Z,49.57
2017-09-26T11:10:19.354Z,46.00
2017-09-26T11:12:46.758Z,44.77
2017-09-26T11:15:14.156Z,41.97
2017-09-26T11:17:41.558Z,49.00
2017-09-26T11:20:08.959Z,47.13
2017-09-26T11:22:36.367Z,44.33
2017-09-26T11:25:03.767Z,47.23
2017-09-26T11:27:31.159Z,44.17
2017-09-26T11:29:58.625Z,50.97
2017-09-26T11:32:26.038Z,50.07
2017-09-26T11:34:53.435Z,46.63
2017-09-26T11:37:20.853Z,47.93
2017-09-26T11:39:48.338Z,47.63
2017-09-26T11:42:15.742Z,46.13
2017-09-26T11:44:43.142Z,47.20
2017-09-26T11:47:10.538Z,52.30
2017-09-26T11:49:37.942Z,52.53
2017-09-26T11:52:06.346Z,47.73
2017-09-26T11:54:33.746Z,45.43
2017-09-26T11:57:01.155Z,48.63
2017-09-26T11:59:28.554Z,49.17
2017-09-26T12:01:55.950Z,50.90
2017-09-26T12:04:23.354Z,50.67
2017-09-26T12:06:50.795Z,49.07
2017-09-26T12:11:42.595Z,44.20
2017-09-26T12:14:10.690Z,49.03
2017-09-26T12:16:38.082Z,46.13
2017-09-26T12:19:05.478Z,46.93
2017-09-26T12:21:32.967Z,50.23
2017-09-26T12:24:00.366Z,60.30
2017-09-26T12:26:27.767Z,54.63
2017-09-26T12:28:55.155Z,47.37
2017-09-26T12:31:22.557Z,60.93
2017-09-26T12:33:49.946Z,63.77
2017-09-26T12:36:17.346Z,61.80
2017-09-26T12:38:44.742Z,59.23
2017-09-26T12:41:12.146Z,62.27
2017-09-26T12:43:39.538Z,45.57
2017-09-26T12:46:06.938Z,60.90
2017-09-26T12:48:34.445Z,52.83
2017-09-26T12:51:01.847Z,55.93
2017-09-26T12:53:29.239Z,51.00
2017-09-26T12:55:56.643Z,47.43
2017-09-26T12:58:24.169Z,44.13
2017-09-26T13:00:51.566Z,45.97
2017-09-26T13:03:19.018Z,43.83
2017-09-26T13:05:46.466Z,45.63
2017-09-26T13:08:13.866Z,45.30
2017-09-26T13:10:41.267Z,46.17
2017-09-26T13:13:08.666Z,47.30
2017-09-26T13:15:36.070Z,49.03
2017-09-26T13:18:03.463Z,47.47
2017-09-26T13:20:30.862Z,38.53
2017-09-26T13:22:58.254Z,43.50
2017-09-26T13:25:25.654Z,40.93
2017-09-26T13:27:53.062Z,40.03
2017-09-26T13:30:20.532Z,38.37
2017-09-26T13:32:47.955Z,48.70
2017-09-26T13:35:15.350Z,43.20
2017-09-26T13:37:42.752Z,39.27
2017-09-26T13:40:10.140Z,33.87
2017-09-26T13:42:37.542Z,34.23
2017-09-26T13:45:04.934Z,34.47
2017-09-26T13:47:32.356Z,35.97
2017-09-26T13:49:59.754Z,34.30
2017-09-26T13:52:27.151Z,33.70
2017-09-26T13:54:54.542Z,32.20
2017-09-26T13:57:21.943Z,35.00
2017-09-26T13:59:49.334Z,36.57
2017-09-26T14:02:16.745Z,34.20
2017-09-26T14:04:44.146Z,33.90
2017-09-26T14:07:11.547Z,30.00
2017-09-26T14:09:39.040Z,28.43
2017-09-26T14:12:06.443Z,31.03
2017-09-26T14:14:33.939Z,27.73
2017-09-26T14:17:01.331Z,30.20
2017-09-26T14:19:28.768Z,33.33
2017-09-26T14:21:56.154Z,28.50
2017-09-26T14:24:23.556Z,29.30
2017-09-26T14:26:50.954Z,26.10
2017-09-26T14:29:18.373Z,29.73
2017-09-26T14:31:45.770Z,26.17
2017-09-26T14:34:13.203Z,30.50
2017-09-26T14:36:40.605Z,25.63
2017-09-26T14:39:08.005Z,25.50
2017-09-26T14:41:35.398Z,26.40
2017-09-26T14:44:02.794Z,23.67
2017-09-26T14:46:30.190Z,25.10
2017-09-26T14:48:57.597Z,28.13
2017-09-26T14:51:24.987Z,26.50
2017-09-26T14:53:52.390Z,23.97
2017-09-26T14:56:19.782Z,25.00
2017-09-26T14:58:47.190Z,26.93
2017-09-26T15:01:14.586Z,27.33
2017-09-26T15:03:41.986Z,28.93
2017-09-26T15:06:09.383Z,26.57
2017-09-26T15:08:36.785Z,27.93
2017-09-26T15:11:04.178Z,29.17
2017-09-26T15:13:31.688Z,30.13
2017-09-26T15:15:59.082Z,29.50
2017-09-26T15:18:26.482Z,31.10
2017-09-26T15:20:53.920Z,26.60
2017-09-26T15:23:21.413Z,31.23
2017-09-26T15:25:48.872Z,27.37
2017-09-26T15:28:16.269Z,29.40
2017-09-26T15:30:43.673Z,29.30
2017-09-26T15:33:11.147Z,29.40
2017-09-26T15:35:38.535Z,29.23
2017-09-26T15:38:05.934Z,30.03
2017-09-26T15:40:33.402Z,29.83
2017-09-26T15:43:00.799Z,32.60
2017-09-26T15:45:28.214Z,31.53
2017-09-26T15:47:55.607Z,32.50
2017-09-26T15:50:23.014Z,34.90
2017-09-26T15:52:50.496Z,40.23
2017-09-26T15:55:17.885Z,31.10
2017-09-26T15:57:45.282Z,32.67
2017-09-26T16:00:12.685Z,33.07
2017-09-26T16:02:40.094Z,28.17
2017-09-26T16:05:07.495Z,36.60
2017-09-26T16:07:34.898Z,32.00
2017-09-26T16:10:02.299Z,31.30
2017-09-26T16:12:29.717Z,37.37
2017-09-26T16:14:57.099Z,33.67
2017-09-26T16:17:24.522Z,33.83
2017-09-26T16:19:52.006Z,35.50
2017-09-26T16:22:19.402Z,38.07
2017-09-26T16:24:46.809Z,41.30
2017-09-26T16:27:14.203Z,45.70
2017-09-26T16:29:41.610Z,37.50
2017-09-26T16:32:09.007Z,36.17
2017-09-26T16:34:36.407Z,39.07
2017-09-26T16:37:03.807Z,37.57
2017-09-26T16:39:31.199Z,42.50
2017-09-26T16:41:58.603Z,40.07
2017-09-26T16:44:26.010Z,38.03
2017-09-26T16:46:53.522Z,33.80
2017-09-26T16:49:20.987Z,36.80
2017-09-26T16:51:48.383Z,39.07
2017-09-26T16:54:15.786Z,39.97
2017-09-26T16:56:43.194Z,43.73
2017-09-26T16:59:10.624Z,48.77
2017-09-26T17:01:38.007Z,41.57
2017-09-26T17:04:05.398Z,39.73
2017-09-26T17:06:32.806Z,39.43
2017-09-26T17:09:00.222Z,39.17
2017-09-26T17:11:27.620Z,43.60
2017-09-26T17:13:55.045Z,38.20
2017-09-26T17:16:22.423Z,41.07
2017-09-26T17:18:49.822Z,44.70
2017-09-26T17:21:17.298Z,41.90
2017-09-26T17:23:44.702Z,40.90
2017-09-26T17:26:12.110Z,47.07
2017-09-26T17:28:39.509Z,51.30
2017-09-26T17:31:06.906Z,43.80
2017-09-26T17:33:34.302Z,49.27
2017-09-26T17:36:01.694Z,53.03
2017-09-26T17:38:29.090Z,48.00
2017-09-26T17:40:56.558Z,47.17
2017-09-26T17:43:23.968Z,47.00
2017-09-26T17:45:51.368Z,49.57
2017-09-26T17:48:18.766Z,56.47
2017-09-26T17:50:46.163Z,46.27
2017-09-26T17:53:13.563Z,50.73
2017-09-26T17:55:40.950Z,57.37
2017-09-26T17:58:08.380Z,56.03
2017-09-26T18:00:35.808Z,52.83
2017-09-26T18:03:03.198Z,51.00
2017-09-26T18:05:30.707Z,53.30
2017-09-26T18:07:58.115Z,61.77
2017-09-26T18:10:25.514Z,48.97
2017-09-26T18:12:52.902Z,47.37
2017-09-26T18:15:20.303Z,40.23
2017-09-26T18:17:47.787Z,34.27
2017-09-26T18:20:15.190Z,45.40
2017-09-26T18:22:42.583Z,40.13
2017-09-26T18:25:09.974Z,42.67
2017-09-26T18:27:37.385Z,34.30
2017-09-26T18:30:04.861Z,34.17
2017-09-26T18:32:32.271Z,37.53
2017-09-26T18:34:59.674Z,39.87
2017-09-26T18:37:27.075Z,43.20
2017-09-26T18:39:54.474Z,41.33
2017-09-26T18:42:21.870Z,37.17
2017-09-26T18:44:49.270Z,37.03
2017-09-26T18:47:16.669Z,46.87
2017-09-26T18:49:44.063Z,46.83
2017-09-26T18:52:11.567Z,48.47
2017-09-26T18:54:38.967Z,47.47
2017-09-26T18:57:06.426Z,46.07
2017-09-26T18:59:33.835Z,48.80
2017-09-26T19:02:01.396Z,46.77
2017-09-26T19:04:28.782Z,53.20
2017-09-26T19:06:56.182Z,48.93
2017-09-26T19:09:23.578Z,55.37
2017-09-26T19:11:50.986Z,56.33
2017-09-26T19:14:18.388Z,49.57
2017-09-26T19:16:45.870Z,48.83
2017-09-26T19:19:13.258Z,52.00
2017-09-26T19:21:40.760Z,55.87
2017-09-26T19:24:08.178Z,58.50
2017-09-26T19:26:35.571Z,55.37
2017-09-26T19:29:02.970Z,56.70
2017-09-26T19:31:30.626Z,63.50
2017-09-26T19:33:58.192Z,58.50
2017-09-26T19:36:25.650Z,63.27
2017-09-26T19:38:53.046Z,59.53
2017-09-26T19:41:20.454Z,52.90
2017-09-26T19:43:47.848Z,46.37
2017-09-26T19:46:15.251Z,66.63
2017-09-26T19:48:42.650Z,55.63
2017-09-26T19:51:10.055Z,61.73
2017-09-26T19:53:37.562Z,57.40
2017-09-26T19:56:04.966Z,59.03
2017-09-26T19:58:32.371Z,66.73
2017-09-26T20:00:59.764Z,51.45
2017-09-26T20:03:27.262Z,63.33
2017-09-26T20:05:54.660Z,63.20
2017-09-26T20:08:22.061Z,49.77
2017-09-26T20:10:49.460Z,46.17
2017-09-26T20:13:16.858Z,45.00
2017-09-26T20:15:44.261Z,43.00
2017-09-26T20:18:11.662Z,39.33
2017-09-26T20:20:39.054Z,37.23
2017-09-26T20:23:06.458Z,40.90
2017-09-26T20:25:33.880Z,41.07
2017-09-26T20:28:01.280Z,45.17
2017-09-26T20:30:28.687Z,49.43
2017-09-26T20:32:56.098Z,52.07
2017-09-26T20:35:23.590Z,49.83
2017-09-26T20:37:51.052Z,61.20
2017-09-26T20:40:18.439Z,63.70
2017-09-26T20:42:45.842Z,60.60
2017-09-26T20:45:13.239Z,78.80
2017-09-26T20:47:40.638Z,65.40
2017-09-26T20:50:08.031Z,72.27
2017-09-26T20:52:35.430Z,86.90
2017-09-26T20:55:02.826Z,64.70
2017-09-26T20:57:30.222Z,66.17
2017-09-26T20:59:57.624Z,79.00
2017-09-26T21:02:25.026Z,83.50
2017-09-26T21:04:52.454Z,86.80
2017-09-26T21:07:19.850Z,88.17
2017-09-26T21:09:47.249Z,99.60
2017-09-26T21:12:14.646Z,97.90
2017-09-26T21:14:42.042Z,93.13
2017-09-26T21:17:09.439Z,82.13
2017-09-26T21:19:36.834Z,86.10
2017-09-26T21:22:04.334Z,67.27
2017-09-26T21:24:31.726Z,81.00
2017-09-26T21:26:59.122Z,69.43
2017-09-26T21:29:26.516Z,78.63
2017-09-26T21:31:53.910Z,76.53
2017-09-26T21:34:21.324Z,62.80
2017-09-26T21:36:48.710Z,80.73
2017-09-26T21:39:16.113Z,81.30
2017-09-26T21:41:43.510Z,71.50
2017-09-26T21:44:10.920Z,91.13
2017-09-26T21:49:12.115Z,82.87
2017-09-26T21:51:39.510Z,77.20
2017-09-26T21:54:06.917Z,85.67
2017-09-26T21:56:34.366Z,94.90
2017-09-26T21:59:01.763Z,93.50
2017-09-26T22:01:29.171Z,106.57
2017-09-26T22:03:56.584Z,95.37
2017-09-26T22:06:24.087Z,95.13
2017-09-26T22:08:51.478Z,92.70
2017-09-26T22:11:18.874Z,96.20
2017-09-26T22:13:46.275Z,79.00
2017-09-26T22:16:13.679Z,85.60
2017-09-26T22:18:41.103Z,90.40
2017-09-26T22:21:08.510Z,86.67
2017-09-26T22:23:35.909Z,91.97
2017-09-26T22:26:03.310Z,93.50
2017-09-26T22:28:30.703Z,81.37
2017-09-26T22:30:58.106Z,83.87
2017-09-26T22:33:25.506Z,85.43
2017-09-26T22:35:52.907Z,102.50
2017-09-26T22:38:20.414Z,94.07
2017-09-26T22:40:47.827Z,84.73
2017-09-26T22:43:15.224Z,96.30
2017-09-26T22:45:42.626Z,65.97
2017-09-26T22:48:10.024Z,130.77
2017-09-26T22:50:37.489Z,98.07
2017-09-26T22:53:13.447Z,83.43
2017-09-26T22:55:40.853Z,74.57
2017-09-26T22:58:08.254Z,76.13
2017-09-26T23:00:35.647Z,89.23
2017-09-26T23:03:03.045Z,75.57
2017-09-26T23:05:30.435Z,68.07
2017-09-26T23:07:57.848Z,78.67
2017-09-26T23:10:25.240Z,73.10
2017-09-26T23:12:52.642Z,84.73
2017-09-26T23:15:20.038Z,95.33
2017-09-26T23:17:47.450Z,106.13
2017-09-26T23:20:14.842Z,80.93
2017-09-26T23:28:27.931Z,94.67
2017-09-26T23:30:55.340Z,67.10
2017-09-26T23:33:22.726Z,65.07
2017-09-26T23:35:50.123Z,92.63
2017-09-26T23:38:17.521Z,70.17
2017-09-26T23:40:44.919Z,47.20
2017-09-26T23:43:12.318Z,53.10
2017-09-26T23:45:39.840Z,46.47
2017-09-26T23:48:07.247Z,58.13
2017-09-26T23:50:34.695Z,86.20
2017-09-26T23:53:02.107Z,77.13
2017-09-26T23:57:56.730Z,123.57
